Time;durP1;ratioP1;P1;durP2;ratioP2;P2;SDS_P1;SDS_P2;PMS_P1;PMS_P2;Temp;Humidity;BMP_temperature;BMP_pressure;BME280_temperature;BME280_humidity;BME280_pressure;Samples;Min_cycle;Max_cycle;Signal;HPM_P1;HPM_P2
2022/10/01 00:01:47;;;;;;;3.60;2.40;;;15.50;89.10;;;;;;5053943;28;20033;-70
2022/10/01 00:04:12;;;;;;;6.47;2.55;;;15.50;89.30;;;;;;5056264;28;20025;-70
2022/10/01 00:06:38;;;;;;;3.60;1.55;;;15.50;89.40;;;;;;5053544;28;20118;-70
2022/10/01 00:09:04;;;;;;;3.10;2.15;;;15.50;89.40;;;;;;5055053;28;20037;-70
2022/10/01 00:11:30;;;;;;;5.03;2.58;;;15.40;89.40;;;;;;5053885;28;20098;-70
2022/10/01 00:13:56;;;;;;;5.30;2.83;;;15.50;89.60;;;;;;5053014;28;20490;-70
2022/10/01 00:16:26;;;;;;;9.25;3.08;;;15.50;89.80;;;;;;5053969;28;20044;-70
2022/10/01 00:18:52;;;;;;;1.48;1.27;;;15.50;89.70;;;;;;5053832;28;20116;-70
2022/10/01 00:21:24;;;;;;;1.75;1.33;;;15.50;89.60;;;;;;5052956;28;20052;-70
2022/10/01 00:23:55;;;;;;;3.30;1.95;;;15.50;90.10;;;;;;5053854;28;20037;-70
2022/10/01 00:26:24;;;;;;;3.97;1.92;;;15.50;89.80;;;;;;5053761;28;20064;-70
2022/10/01 00:28:54;;;;;;;2.03;1.52;;;15.50;89.70;;;;;;5052987;28;20087;-70
2022/10/01 00:31:20;;;;;;;5.55;1.98;;;15.50;89.60;;;;;;5053742;28;20033;-70
2022/10/01 00:33:46;;;;;;;4.47;2.30;;;15.50;89.70;;;;;;5053564;28;20032;-70
2022/10/01 00:36:12;;;;;;;4.28;1.55;;;15.40;89.80;;;;;;5052772;28;20033;-70
2022/10/01 00:38:39;;;;;;;2.92;1.65;;;15.40;89.60;;;;;;5053502;28;20036;-70
2022/10/01 00:41:06;;;;;;;6.30;3.47;;;15.40;89.70;;;;;;5053581;28;20119;-71
2022/10/01 00:43:36;;;;;;;5.82;2.67;;;15.40;90.00;;;;;;5052741;28;20029;-70
2022/10/01 00:46:42;;;;;;;5.95;3.28;;;15.40;90.00;;;;;;5053584;28;20436;-70
2022/10/01 00:49:15;;;;;;;5.68;3.25;;;15.40;90.00;;;;;;5051206;28;20112;-70
2022/10/01 00:51:48;;;;;;;3.88;2.70;;;15.30;90.00;;;;;;5053456;28;20068;-70
2022/10/01 00:54:20;;;;;;;3.47;2.13;;;15.30;90.00;;;;;;5053435;28;20136;-70
2022/10/01 00:56:48;;;;;;;3.97;1.92;;;15.30;90.00;;;;;;5052456;28;20503;-70
2022/10/01 00:59:15;;;;;;;3.75;2.28;;;15.30;90.00;;;;;;5053130;28;20033;-70
2022/10/01 01:01:41;;;;;;;4.18;2.65;;;15.20;90.00;;;;;;5053331;28;20044;-70
2022/10/01 01:04:15;;;;;;;3.63;2.15;;;15.30;90.10;;;;;;5052623;28;20522;-70
2022/10/01 01:06:50;;;;;;;3.20;2.00;;;15.20;90.20;;;;;;5053413;28;20045;-70
2022/10/01 01:09:16;;;;;;;3.97;2.25;;;15.20;90.20;;;;;;5053091;28;20039;-70
2022/10/01 01:11:55;;;;;;;3.85;2.03;;;15.20;90.20;;;;;;5052345;28;20033;-70
2022/10/01 01:14:45;;;;;;;4.38;2.63;;;15.10;90.30;;;;;;5053315;28;20021;-70
2022/10/01 01:17:43;;;;;;;2.25;1.63;;;15.20;90.30;;;;;;5052955;28;20029;-69
2022/10/01 01:20:35;;;;;;;2.78;2.03;;;15.10;90.40;;;;;;5053054;28;20051;-70
2022/10/01 01:23:15;;;;;;;3.78;2.60;;;15.10;90.40;;;;;;5052984;28;20583;-70
2022/10/01 01:25:47;;;;;;;3.55;2.13;;;15.00;90.50;;;;;;5052323;28;20035;-70
2022/10/01 01:28:20;;;;;;;4.72;3.40;;;15.00;90.60;;;;;;5053081;28;20083;-70
2022/10/01 01:30:50;;;;;;;3.60;2.60;;;15.00;90.60;;;;;;5052852;28;20040;-70
2022/10/01 01:33:19;;;;;;;5.47;2.72;;;15.00;90.60;;;;;;5052360;28;20124;-70
2022/10/01 01:35:53;;;;;;;3.33;2.53;;;14.90;90.60;;;;;;5053237;28;20542;-70
2022/10/01 01:38:24;;;;;;;;;;;15.00;90.70;;;;;;5053022;28;20068;-70
2022/10/01 01:40:54;;;;;;;4.38;2.92;;;15.00;90.60;;;;;;5055499;28;19924;-70
2022/10/01 01:43:25;;;;;;;4.20;2.88;;;15.00;90.70;;;;;;5056834;28;20025;-70
2022/10/01 01:45:53;;;;;;;5.95;1.92;;;14.90;90.70;;;;;;5055932;28;20037;-70
2022/10/01 01:48:23;;;;;;;3.53;2.53;;;15.00;90.70;;;;;;5056629;28;20106;-70
2022/10/01 01:51:17;;;;;;;3.28;2.28;;;14.90;90.70;;;;;;5056509;28;20388;-70
2022/10/01 01:53:43;;;;;;;;;;;14.90;90.70;;;;;;5055842;28;20120;-70
2022/10/01 01:56:09;;;;;;;5.72;3.22;;;14.90;90.70;;;;;;5056591;28;19940;-70
2022/10/01 01:58:37;;;;;;;2.53;1.52;;;14.90;90.90;;;;;;5056495;28;20033;-70
2022/10/01 02:01:03;;;;;;;6.07;3.28;;;14.80;90.80;;;;;;5055435;28;20055;-70
2022/10/01 02:03:32;;;;;;;4.82;2.90;;;14.80;91.00;;;;;;5056483;28;20356;-70
2022/10/01 02:06:15;;;;;;;1.75;1.45;;;14.80;90.90;;;;;;5056132;28;20056;-71
2022/10/01 02:09:01;;;;;;;5.45;2.72;;;14.80;90.80;;;;;;5056413;28;20387;-70
2022/10/01 02:11:35;;;;;;;3.78;2.25;;;14.80;90.80;;;;;;5056249;28;20464;-70
2022/10/01 02:14:19;;;;;;;6.32;3.08;;;14.90;90.90;;;;;;5055344;28;20029;-70
2022/10/01 02:16:55;;;;;;;4.95;2.83;;;14.80;90.90;;;;;;5056242;28;20032;-70
2022/10/01 02:19:34;;;;;;;3.13;2.08;;;14.90;91.00;;;;;;5056143;28;20037;-70
2022/10/01 02:22:09;;;;;;;3.42;2.55;;;14.90;90.90;;;;;;5055308;28;20495;-69
2022/10/01 02:24:46;;;;;;;3.70;2.17;;;14.90;90.90;;;;;;5056166;28;20364;-70
2022/10/01 02:27:36;;;;;;;3.00;1.95;;;14.90;90.80;;;;;;5055749;28;20495;-70
2022/10/01 02:30:06;;;;;;;6.30;2.90;;;14.90;90.90;;;;;;5055733;28;20522;-70
2022/10/01 02:32:34;;;;;;;4.78;3.20;;;14.90;90.80;;;;;;5055887;28;20032;-70
2022/10/01 02:35:00;;;;;;;4.93;2.67;;;14.90;90.90;;;;;;5055040;28;20108;-70
2022/10/01 02:37:27;;;;;;;3.38;2.17;;;14.80;90.90;;;;;;5055570;28;20033;-70
2022/10/01 02:39:56;;;;;;;4.82;2.28;;;14.80;90.80;;;;;;5055745;28;20032;-69
2022/10/01 02:42:24;;;;;;;3.67;1.77;;;14.80;90.80;;;;;;5054736;28;20063;-70
2022/10/01 02:44:53;;;;;;;2.53;1.73;;;14.90;90.80;;;;;;5055608;28;20037;-70
2022/10/01 02:47:24;;;;;;;4.28;2.63;;;14.90;90.80;;;;;;5056285;28;20051;-70
2022/10/01 02:49:51;;;;;;;2.55;1.77;;;14.80;90.90;;;;;;5054506;28;20388;-70
2022/10/01 02:52:26;;;;;;;1.95;1.60;;;14.80;90.90;;;;;;5055418;28;20052;-70
2022/10/01 02:54:59;;;;;;;6.93;2.28;;;14.80;91.20;;;;;;5055247;28;20396;-70
2022/10/01 02:57:26;;;;;;;2.72;1.80;;;14.80;91.10;;;;;;5054715;28;20407;-69
2022/10/01 03:00:21;;;;;;;2.08;1.45;;;14.70;91.10;;;;;;5055276;28;20041;-70
2022/10/01 03:02:48;;;;;;;2.22;1.67;;;14.70;91.20;;;;;;5053933;28;20053;-70
2022/10/01 03:05:15;;;;;;;4.28;2.58;;;14.70;91.20;;;;;;5056459;28;20415;-70
2022/10/01 03:07:42;;;;;;;1.80;1.27;;;14.70;91.40;;;;;;5055814;28;20401;-70
2022/10/01 03:10:09;;;;;;;2.10;1.48;;;14.70;91.10;;;;;;5054433;28;20029;-70
2022/10/01 03:12:35;;;;;;;4.90;2.20;;;14.80;91.10;;;;;;5055074;28;20036;-70
2022/10/01 03:15:01;;;;;;;2.20;1.58;;;14.70;91.30;;;;;;5054837;28;20029;-70
2022/10/01 03:17:27;;;;;;;2.50;1.90;;;14.70;91.30;;;;;;5054306;28;20032;-70
2022/10/01 03:19:53;;;;;;;4.15;1.88;;;14.70;91.40;;;;;;5054932;28;20025;-70
2022/10/01 03:22:23;;;;;;;3.58;1.85;;;14.70;91.40;;;;;;5054787;28;20468;-69
2022/10/01 03:24:53;;;;;;;3.55;2.35;;;14.70;91.30;;;;;;5054101;28;20040;-70
2022/10/01 03:27:19;;;;;;;3.50;1.90;;;14.70;91.30;;;;;;5054726;28;20111;-70
2022/10/01 03:29:45;;;;;;;1.45;1.33;;;14.70;91.40;;;;;;5055069;28;20033;-70
2022/10/01 03:32:12;;;;;;;1.25;1.13;;;14.60;91.60;;;;;;5053822;28;20039;-70
2022/10/01 03:34:38;;;;;;;5.03;1.50;;;14.60;91.40;;;;;;5054716;28;20033;-70
2022/10/01 03:37:04;;;;;;;2.13;1.27;;;14.60;91.50;;;;;;5054575;28;20094;-70
2022/10/01 03:39:30;;;;;;;1.80;1.30;;;14.60;91.50;;;;;;5053693;28;20033;-70
2022/10/01 03:41:56;;;;;;;1.50;1.40;;;14.60;91.60;;;;;;5054608;28;20048;-70
2022/10/01 03:44:22;;;;;;;3.13;2.05;;;14.50;91.70;;;;;;5055214;28;20037;-70
2022/10/01 03:46:47;;;;;;;2.15;1.45;;;14.50;91.80;;;;;;5053510;28;20040;-70
2022/10/01 03:49:13;;;;;;;3.00;1.20;;;14.50;91.80;;;;;;5054322;28;20032;-70
2022/10/01 03:51:39;;;;;;;1.17;1.05;;;14.50;91.90;;;;;;5054369;28;20414;-70
2022/10/01 03:54:06;;;;;;;1.10;1.00;;;14.50;92.00;;;;;;5053566;28;20132;-70
2022/10/01 03:56:33;;;;;;;0.80;0.80;;;14.40;92.00;;;;;;5054287;28;20043;-70
2022/10/01 03:58:59;;;;;;;2.30;1.65;;;14.40;92.20;;;;;;5053462;28;20027;-69
2022/10/01 04:01:25;;;;;;;1.17;1.10;;;14.40;92.40;;;;;;5054101;28;20476;-69
2022/10/01 04:03:51;;;;;;;2.13;1.38;;;14.30;92.50;;;;;;5053334;28;20040;-69
2022/10/01 04:06:17;;;;;;;1.27;1.15;;;14.30;92.50;;;;;;5053212;28;20029;-69
2022/10/01 04:08:43;;;;;;;2.58;1.13;;;14.30;92.70;;;;;;5054074;28;20056;-69
2022/10/01 04:11:09;;;;;;;2.13;1.73;;;14.30;92.70;;;;;;5053961;28;20460;-70
2022/10/01 04:13:35;;;;;;;2.15;0.95;;;14.30;92.80;;;;;;5053243;28;20037;-69
2022/10/01 04:16:01;;;;;;;2.90;1.15;;;14.30;92.80;;;;;;5053969;28;20112;-69
2022/10/01 04:18:27;;;;;;;1.30;0.82;;;14.30;92.80;;;;;;5054540;28;20036;-70
2022/10/01 04:20:53;;;;;;;1.38;1.20;;;14.20;92.90;;;;;;5053130;28;20043;-69
2022/10/01 04:23:19;;;;;;;0.77;0.77;;;14.20;93.10;;;;;;5053832;28;20384;-70
2022/10/01 04:25:44;;;;;;;1.38;0.90;;;14.20;93.30;;;;;;5053576;28;20040;-69
2022/10/01 04:28:12;;;;;;;1.98;1.10;;;14.10;93.50;;;;;;5053656;28;20029;-70
2022/10/01 04:30:41;;;;;;;0.95;0.88;;;14.10;93.60;;;;;;5053767;28;20034;-70
2022/10/01 04:33:10;;;;;;;0.82;0.82;;;14.10;93.80;;;;;;5053723;28;20033;-69
2022/10/01 04:35:35;;;;;;;0.70;0.70;;;14.10;93.90;;;;;;5052968;28;20025;-70
2022/10/01 04:38:04;;;;;;;1.33;1.00;;;14.00;94.10;;;;;;5054080;28;20540;-70
2022/10/01 04:40:33;;;;;;;0.93;0.93;;;14.00;94.20;;;;;;5053572;28;20120;-70
2022/10/01 04:42:59;;;;;;;1.60;1.00;;;14.00;94.30;;;;;;5052888;28;20159;-70
2022/10/01 04:45:25;;;;;;;1.00;0.75;;;14.00;94.40;;;;;;5053451;28;20055;-70
2022/10/01 04:47:53;;;;;;;1.30;1.15;;;13.90;94.50;;;;;;5053376;28;20061;-70
2022/10/01 04:50:19;;;;;;;0.95;0.90;;;13.90;94.70;;;;;;5052698;28;20032;-70
2022/10/01 04:52:49;;;;;;;0.88;0.88;;;13.90;94.80;;;;;;5053216;28;20037;-69
2022/10/01 04:55:16;;;;;;;0.82;0.82;;;13.90;94.80;;;;;;5053041;28;20099;-70
2022/10/01 04:57:42;;;;;;;1.23;1.10;;;13.90;95.00;;;;;;5053414;28;20041;-70
2022/10/01 05:00:11;;;;;;;1.00;1.00;;;13.80;95.20;;;;;;5053301;28;20037;-69
2022/10/01 05:02:37;;;;;;;2.28;0.93;;;13.80;95.40;;;;;;5052861;28;20040;-69
2022/10/01 05:05:05;;;;;;;1.10;1.00;;;13.70;95.50;;;;;;5053907;28;20436;-69
2022/10/01 05:07:32;;;;;;;1.40;0.90;;;13.80;95.60;;;;;;5053447;28;20032;-70
2022/10/01 05:09:59;;;;;;;0.80;0.80;;;13.80;95.60;;;;;;5052628;28;20033;-69
2022/10/01 05:12:29;;;;;;;0.70;0.70;;;13.80;95.70;;;;;;5053300;28;20033;-69
2022/10/01 05:14:55;;;;;;;3.42;1.10;;;13.80;95.70;;;;;;5054260;28;20043;-69
2022/10/01 05:17:21;;;;;;;1.15;1.05;;;13.80;95.70;;;;;;5056448;28;20048;-70
2022/10/01 05:19:48;;;;;;;1.92;1.13;;;13.80;95.70;;;;;;5056912;28;20483;-69
2022/10/01 05:22:14;;;;;;;1.25;1.10;;;13.80;95.80;;;;;;5057160;28;20123;-70
2022/10/01 05:24:40;;;;;;;1.40;0.95;;;13.80;95.90;;;;;;5056475;28;20044;-70
2022/10/01 05:27:11;;;;;;;1.10;0.80;;;13.80;96.00;;;;;;5057279;28;20041;-70
2022/10/01 05:29:37;;;;;;;1.40;1.30;;;13.80;95.90;;;;;;5057272;28;20029;-69
2022/10/01 05:32:03;;;;;;;0.90;0.85;;;13.80;95.90;;;;;;5056305;28;20033;-69
2022/10/01 05:34:29;;;;;;;1.42;0.82;;;13.90;96.00;;;;;;5056872;28;20029;-69
2022/10/01 05:36:54;;;;;;;1.17;1.08;;;13.90;96.20;;;;;;5057114;28;20627;-69
2022/10/01 05:39:20;;;;;;;3.00;1.25;;;13.90;96.00;;;;;;5056365;28;20497;-69
2022/10/01 05:41:46;;;;;;;0.95;0.95;;;13.90;96.00;;;;;;5056971;28;20044;-69
2022/10/01 05:44:11;;;;;;;5.65;1.65;;;13.90;96.00;;;;;;5056660;28;20486;-69
2022/10/01 05:46:37;;;;;;;0.73;0.73;;;14.00;95.90;;;;;;5055734;28;20529;-69
2022/10/01 05:49:03;;;;;;;1.25;1.15;;;14.00;95.90;;;;;;5056531;28;20021;-69
2022/10/01 05:51:29;;;;;;;1.08;0.90;;;14.00;95.80;;;;;;5055916;28;20479;-69
2022/10/01 05:53:57;;;;;;;1.27;1.17;;;14.00;95.90;;;;;;5056191;28;20095;-69
2022/10/01 05:56:24;;;;;;;0.73;0.73;;;14.00;96.00;;;;;;5056741;28;20041;-69
2022/10/01 05:58:50;;;;;;;0.93;0.93;;;14.00;96.00;;;;;;5056726;28;20494;-69
2022/10/01 06:01:16;;;;;;;1.42;0.80;;;14.00;96.10;;;;;;5056470;28;20045;-69
2022/10/01 06:03:43;;;;;;;0.90;0.90;;;14.00;96.10;;;;;;5056098;28;20025;-70
2022/10/01 06:06:09;;;;;;;1.27;1.10;;;14.00;96.10;;;;;;5055775;28;20037;-70
2022/10/01 06:08:36;;;;;;;0.77;0.77;;;14.00;96.10;;;;;;5056577;28;20032;-69
2022/10/01 06:11:03;;;;;;;1.08;0.80;;;14.00;96.10;;;;;;5056169;28;20099;-70
2022/10/01 06:13:29;;;;;;;1.33;1.08;;;14.10;96.10;;;;;;5055239;28;20035;-69
2022/10/01 06:15:55;;;;;;;1.40;1.17;;;14.00;96.10;;;;;;5056104;28;20025;-70
2022/10/01 06:18:20;;;;;;;0.60;0.60;;;14.00;96.20;;;;;;5055904;28;20059;-70
2022/10/01 06:20:46;;;;;;;0.52;0.52;;;14.00;96.20;;;;;;5055238;28;20041;-70
2022/10/01 06:23:12;;;;;;;0.50;0.50;;;14.00;96.20;;;;;;5056030;28;20025;-69
2022/10/01 06:25:40;;;;;;;1.30;1.17;;;14.10;96.10;;;;;;5055470;28;20131;-70
2022/10/01 06:28:09;;;;;;;1.15;1.05;;;14.10;96.10;;;;;;5055098;28;20029;-70
2022/10/01 06:30:37;;;;;;;1.95;0.90;;;14.10;96.10;;;;;;5055652;28;20037;-70
2022/10/01 06:33:07;;;;;;;1.35;0.88;;;14.10;96.10;;;;;;5055589;28;20040;-70
2022/10/01 06:35:35;;;;;;;0.60;0.60;;;14.10;96.10;;;;;;5054860;28;20593;-70
2022/10/01 06:38:00;;;;;;;1.15;1.05;;;14.20;96.10;;;;;;5055813;28;20063;-70
2022/10/01 06:40:28;;;;;;;0.80;0.80;;;14.20;96.10;;;;;;5055654;28;20144;-69
2022/10/01 06:42:57;;;;;;;1.25;1.13;;;14.20;96.30;;;;;;5054862;28;20036;-69
2022/10/01 06:45:24;;;;;;;2.10;0.98;;;14.20;96.10;;;;;;5055402;28;20056;-69
2022/10/01 06:47:54;;;;;;;4.38;1.17;;;14.20;96.10;;;;;;5054817;28;20029;-70
2022/10/01 06:50:20;;;;;;;1.20;1.10;;;14.30;96.20;;;;;;5055550;28;20033;-70
2022/10/01 06:52:49;;;;;;;12.65;1.90;;;14.30;96.10;;;;;;5055922;28;20043;-70
2022/10/01 06:55:19;;;;;;;2.92;1.63;;;14.30;96.10;;;;;;5054426;28;20056;-69
2022/10/01 06:57:45;;;;;;;6.45;1.70;;;14.30;96.10;;;;;;5055349;28;20361;-70
2022/10/01 07:00:13;;;;;;;2.20;1.52;;;14.40;96.00;;;;;;5055257;28;20048;-70
2022/10/01 07:02:39;;;;;;;1.98;1.40;;;14.40;95.90;;;;;;5054559;28;20037;-70
2022/10/01 07:05:06;;;;;;;3.22;1.30;;;14.40;95.80;;;;;;5055135;28;20470;-70
2022/10/01 07:07:34;;;;;;;1.70;1.02;;;14.40;96.00;;;;;;5055092;28;20036;-70
2022/10/01 07:10:00;;;;;;;0.60;0.60;;;14.40;96.10;;;;;;5054308;28;20029;-70
2022/10/01 07:12:26;;;;;;;1.73;1.00;;;14.40;96.10;;;;;;5055150;28;20423;-70
2022/10/01 07:14:52;;;;;;;0.57;0.57;;;14.40;96.20;;;;;;5055131;28;20094;-70
2022/10/01 07:17:18;;;;;;;1.85;1.75;;;14.40;96.20;;;;;;5054376;28;20037;-70
2022/10/01 07:19:44;;;;;;;4.85;1.30;;;14.50;96.20;;;;;;5054950;28;20029;-70
2022/10/01 07:22:09;;;;;;;2.40;1.38;;;14.50;96.20;;;;;;5054733;28;20396;-70
2022/10/01 07:24:35;;;;;;;2.97;1.17;;;14.50;96.30;;;;;;5053998;28;20025;-70
2022/10/01 07:27:01;;;;;;;1.15;1.10;;;14.50;96.30;;;;;;5054842;28;20033;-70
2022/10/01 07:29:26;;;;;;;8.32;2.05;;;14.50;96.40;;;;;;5054538;28;20112;-70
2022/10/01 07:31:59;;;;;;;1.05;0.85;;;14.50;96.60;;;;;;5054078;28;20122;-69
2022/10/01 07:34:31;;;;;;;2.08;1.23;;;14.60;96.70;;;;;;5054731;28;20033;-70
2022/10/01 07:36:57;;;;;;;6.25;2.03;;;14.60;96.80;;;;;;5053444;28;20446;-70
2022/10/01 07:39:23;;;;;;;3.25;1.30;;;14.60;96.90;;;;;;5054082;28;20120;-70
2022/10/01 07:41:50;;;;;;;1.65;1.33;;;14.60;96.90;;;;;;5054565;28;20049;-70
2022/10/01 07:44:16;;;;;;;2.97;1.13;;;14.60;97.10;;;;;;5053785;28;20017;-70
2022/10/01 07:46:42;;;;;;;1.70;1.13;;;14.60;97.20;;;;;;5054496;28;20124;-70
2022/10/01 07:49:08;;;;;;;2.03;1.17;;;14.70;97.20;;;;;;5054448;28;20061;-70
2022/10/01 07:51:35;;;;;;;5.72;1.20;;;14.70;97.30;;;;;;5053613;28;20060;-70
2022/10/01 07:54:01;;;;;;;1.77;1.00;;;14.70;97.40;;;;;;5054046;28;20080;-70
2022/10/01 07:56:27;;;;;;;2.95;1.33;;;14.70;97.50;;;;;;5054402;28;20033;-70
2022/10/01 07:58:54;;;;;;;3.35;1.42;;;14.70;97.50;;;;;;5053326;28;20521;-70
2022/10/01 08:01:20;;;;;;;1.05;0.70;;;14.80;97.60;;;;;;5054028;28;20040;-69
2022/10/01 08:03:49;;;;;;;5.32;1.40;;;14.80;97.60;;;;;;5054319;28;20112;-70
2022/10/01 08:06:16;;;;;;;6.05;2.03;;;14.80;97.70;;;;;;5053603;28;20360;-70
2022/10/01 08:08:42;;;;;;;4.40;1.50;;;14.80;97.80;;;;;;5054060;28;20086;-69
2022/10/01 08:11:09;;;;;;;2.33;1.08;;;14.90;98.00;;;;;;5054071;28;20120;-69
2022/10/01 08:13:35;;;;;;;7.68;1.83;;;14.90;98.10;;;;;;5053282;28;20060;-70
2022/10/01 08:16:03;;;;;;;5.50;1.80;;;14.90;98.20;;;;;;5054012;28;20029;-70
2022/10/01 08:18:28;;;;;;;0.73;0.73;;;14.90;98.40;;;;;;5053831;28;20047;-70
2022/10/01 08:20:54;;;;;;;3.13;1.40;;;14.90;98.50;;;;;;5052921;28;20041;-70
2022/10/01 08:23:20;;;;;;;2.35;1.60;;;14.90;98.60;;;;;;5053582;28;20110;-70
2022/10/01 08:25:46;;;;;;;3.88;1.20;;;15.00;98.70;;;;;;5053825;28;20051;-70
2022/10/01 08:28:13;;;;;;;7.45;2.35;;;15.00;98.70;;;;;;5052878;28;20033;-70
2022/10/01 08:30:41;;;;;;;4.72;1.27;;;15.00;98.70;;;;;;5053707;28;20173;-70
2022/10/01 08:33:09;;;;;;;6.30;1.55;;;15.10;98.90;;;;;;5052758;28;20036;-70
2022/10/01 08:35:38;;;;;;;6.57;1.30;;;15.10;99.00;;;;;;5053643;28;20028;-70
2022/10/01 08:38:05;;;;;;;6.65;1.30;;;15.10;99.10;;;;;;5053694;28;20033;-70
2022/10/01 08:40:39;;;;;;;5.72;1.58;;;15.10;99.20;;;;;;5053156;28;20163;-70
2022/10/01 08:43:30;;;;;;;6.63;1.45;;;15.20;99.30;;;;;;5054174;28;20029;-70
2022/10/01 08:46:03;;;;;;;5.45;1.40;;;15.30;99.40;;;;;;5052912;28;20041;-69
2022/10/01 08:49:26;;;;;;;3.53;1.10;;;15.30;99.40;;;;;;5052355;28;20033;-70
2022/10/01 08:52:02;;;;;;;7.57;1.20;;;15.30;99.40;;;;;;5031400;28;20467;-70
2022/10/01 08:54:39;;;;;;;2.80;1.33;;;15.40;99.50;;;;;;5030413;28;20052;-70
2022/10/01 08:57:11;;;;;;;3.92;1.63;;;15.40;99.60;;;;;;5020489;28;20469;-70
2022/10/01 08:59:47;;;;;;;3.22;1.40;;;15.40;99.70;;;;;;5013793;28;20053;-70
2022/10/01 09:02:28;;;;;;;6.38;1.20;;;15.50;99.80;;;;;;5012766;28;20044;-70
2022/10/01 09:05:06;;;;;;;7.40;1.20;;;15.50;99.80;;;;;;5013601;28;20046;-70
2022/10/01 09:07:41;;;;;;;7.88;1.80;;;15.50;99.90;;;;;;5013537;28;20474;-70
2022/10/01 09:10:44;;;;;;;6.05;1.30;;;15.60;99.90;;;;;;5013078;28;20038;-70
2022/10/01 09:13:13;;;;;;;13.10;1.80;;;15.60;99.90;;;;;;5013439;28;20030;-70
2022/10/01 09:15:52;;;;;;;8.85;1.63;;;15.60;99.90;;;;;;5012865;28;20085;-69
2022/10/01 09:19:07;;;;;;;3.20;1.35;;;15.60;99.90;;;;;;5013598;28;20445;-70
2022/10/01 09:21:52;;;;;;;5.78;1.20;;;15.70;99.90;;;;;;5012805;28;20058;-70
2022/10/01 09:24:41;;;;;;;5.10;1.80;;;15.70;99.90;;;;;;5012873;28;20053;-70
2022/10/01 09:27:12;;;;;;;1.13;0.68;;;15.80;99.90;;;;;;5013482;28;20038;-69
2022/10/01 09:29:48;;;;;;;5.90;1.55;;;15.80;99.90;;;;;;5012718;28;20831;-68
2022/10/01 09:32:19;;;;;;;6.93;1.77;;;15.80;99.90;;;;;;5013780;28;20108;-67
2022/10/01 09:34:46;;;;;;;12.50;1.50;;;15.80;99.90;;;;;;5013474;28;20030;-69
2022/10/01 09:37:36;;;;;;;7.70;1.70;;;15.90;99.90;;;;;;5012841;28;20077;-70
2022/10/01 09:40:22;;;;;;;3.42;0.98;;;15.80;99.90;;;;;;5013439;28;20033;-68
2022/10/01 09:42:48;;;;;;;1.90;0.75;;;15.80;99.90;;;;;;5013544;28;20046;-68
2022/10/01 09:45:15;;;;;;;8.15;1.40;;;15.90;99.90;;;;;;5012563;28;20090;-69
2022/10/01 09:47:44;;;;;;;4.72;1.33;;;15.90;99.80;;;;;;5013169;28;20042;-68
2022/10/01 09:50:16;;;;;;;5.38;1.50;;;15.90;99.80;;;;;;5013204;28;20511;-68
2022/10/01 09:52:47;;;;;;;5.63;0.80;;;16.00;99.70;;;;;;5012437;28;20451;-68
2022/10/01 09:55:36;;;;;;;3.47;0.93;;;16.00;99.70;;;;;;5040357;28;20061;-68
2022/10/01 09:58:13;;;;;;;6.03;1.35;;;16.00;99.60;;;;;;5052150;28;20095;-68
2022/10/01 10:00:40;;;;;;;7.78;1.30;;;16.10;99.60;;;;;;5053322;28;20115;-68
2022/10/01 10:03:06;;;;;;;6.97;1.52;;;16.10;99.40;;;;;;5056547;28;20040;-68
2022/10/01 10:05:45;;;;;;;4.25;1.23;;;16.10;99.20;;;;;;5055699;28;20028;-68
2022/10/01 10:08:14;;;;;;;8.02;1.10;;;16.10;99.10;;;;;;5056376;28;20080;-68
2022/10/01 10:10:49;;;;;;;4.07;0.63;;;16.20;98.90;;;;;;5056346;28;20032;-68
2022/10/01 10:13:34;;;;;;;2.83;0.57;;;16.20;98.80;;;;;;5055252;28;20033;-68
2022/10/01 10:16:09;;;;;;;4.10;0.90;;;16.20;98.50;;;;;;5056310;28;20495;-68
2022/10/01 10:18:37;;;;;;;3.35;0.82;;;16.20;98.50;;;;;;5055592;28;20033;-68
2022/10/01 10:21:24;;;;;;;0.65;0.52;;;16.30;98.50;;;;;;5056019;28;20423;-68
2022/10/01 10:23:56;;;;;;;1.60;0.60;;;16.30;98.40;;;;;;5055968;28;20112;-68
2022/10/01 10:26:30;;;;;;;0.70;0.45;;;16.40;98.30;;;;;;5055510;28;20037;-68
2022/10/01 10:28:56;;;;;;;5.07;1.02;;;16.40;98.20;;;;;;5055879;28;20036;-68
2022/10/01 10:31:25;;;;;;;2.83;0.95;;;16.40;98.30;;;;;;5055890;28;20103;-68
2022/10/01 10:34:01;;;;;;;3.17;0.85;;;16.50;98.00;;;;;;5055362;28;20083;-68
2022/10/01 10:36:31;;;;;;;3.75;1.23;;;16.50;97.90;;;;;;5055603;28;20047;-68
2022/10/01 10:38:58;;;;;;;1.25;0.77;;;16.50;97.80;;;;;;5055859;28;20033;-68
2022/10/01 10:41:27;;;;;;;5.28;0.80;;;16.50;97.80;;;;;;5054948;28;20041;-68
2022/10/01 10:44:00;;;;;;;0.75;0.60;;;16.50;97.70;;;;;;5055753;28;20457;-68
2022/10/01 10:46:30;;;;;;;1.23;0.60;;;16.50;97.90;;;;;;5055645;28;20056;-68
2022/10/01 10:49:09;;;;;;;6.65;0.85;;;16.50;97.60;;;;;;5054915;28;20040;-68
2022/10/01 10:51:43;;;;;;;1.38;0.57;;;16.50;97.70;;;;;;5055894;28;20033;-68
2022/10/01 10:54:24;;;;;;;2.13;0.68;;;16.50;97.60;;;;;;5054552;28;20060;-68
2022/10/01 10:57:02;;;;;;;1.98;0.52;;;16.50;97.40;;;;;;5055463;28;20110;-68
2022/10/01 10:59:32;;;;;;;0.55;0.45;;;16.50;97.30;;;;;;5056604;28;20037;-68
2022/10/01 11:02:00;;;;;;;3.03;0.82;;;16.40;97.30;;;;;;5054611;28;20033;-68
2022/10/01 11:04:44;;;;;;;0.47;0.47;;;16.40;97.30;;;;;;5055171;28;20029;-68
2022/10/01 11:07:12;;;;;;;;;;;16.30;97.30;;;;;;5055713;28;20119;-68
2022/10/01 11:09:50;;;;;;;1.75;0.85;;;16.30;97.40;;;;;;5054191;28;20039;-68
2022/10/01 11:12:46;;;;;;;2.20;1.27;;;16.30;97.40;;;;;;5054910;28;20375;-68
2022/10/01 11:15:45;;;;;;;0.47;0.45;;;16.30;97.40;;;;;;5054832;28;20025;-68
2022/10/01 11:18:46;;;;;;;3.92;1.42;;;16.20;97.40;;;;;;5054876;28;20044;-68
2022/10/01 11:21:27;;;;;;;3.72;0.55;;;16.30;97.40;;;;;;5055264;28;20094;-68
2022/10/01 11:24:14;;;;;;;1.25;0.77;;;16.30;97.40;;;;;;5055383;28;20056;-68
2022/10/01 11:27:01;;;;;;;1.80;0.70;;;16.20;97.40;;;;;;5055066;28;20045;-68
2022/10/01 11:29:48;;;;;;;0.43;0.40;;;16.20;97.40;;;;;;5054153;28;20028;-68
2022/10/01 11:32:36;;;;;;;1.23;0.75;;;16.20;97.50;;;;;;5054804;28;20028;-68
2022/10/01 11:35:41;;;;;;;5.53;0.60;;;16.30;97.60;;;;;;5054883;28;20029;-68
2022/10/01 11:38:12;;;;;;;1.17;0.65;;;16.30;97.50;;;;;;5053967;28;20029;-68
2022/10/01 11:40:44;;;;;;;2.95;1.02;;;16.30;97.60;;;;;;5054443;28;20041;-68
2022/10/01 11:43:30;;;;;;;1.90;1.10;;;16.20;97.80;;;;;;5053724;28;20095;-68
2022/10/01 11:46:02;;;;;;;4.75;1.52;;;16.20;97.90;;;;;;5054608;28;20032;-68
2022/10/01 11:48:37;;;;;;;1.70;0.77;;;16.30;98.40;;;;;;5054441;28;20388;-68
2022/10/01 11:51:13;;;;;;;3.65;0.70;;;16.30;98.30;;;;;;5053421;28;20498;-68
2022/10/01 11:53:53;;;;;;;1.33;0.88;;;16.30;98.50;;;;;;5054152;28;20032;-68
2022/10/01 11:59:23;;;;;;;1.65;1.10;;;16.30;98.60;;;;;;5053532;28;20100;-68
2022/10/01 12:01:56;;;;;;;2.47;1.08;;;16.50;98.90;;;;;;5053915;28;20052;-66
2022/10/01 12:04:36;;;;;;;3.45;1.00;;;16.50;99.10;;;;;;5053408;28;20436;-76
2022/10/01 12:07:33;;;;;;;4.68;1.05;;;16.50;99.20;;;;;;5054104;28;20036;-68
2022/10/01 12:10:20;;;;;;;4.40;0.73;;;16.60;99.30;;;;;;5050831;28;20048;-68
2022/10/01 12:13:03;;;;;;;3.28;1.10;;;16.60;99.30;;;;;;5053253;28;20051;-68
2022/10/01 12:15:56;;;;;;;4.03;1.50;;;16.70;99.40;;;;;;5054051;28;20122;-68
2022/10/01 12:18:29;;;;;;;9.00;1.50;;;16.70;99.50;;;;;;5052709;28;20041;-68
2022/10/01 12:20:59;;;;;;;2.47;1.02;;;16.80;99.60;;;;;;5053912;28;20048;-68
2022/10/01 12:23:34;;;;;;;1.63;0.88;;;16.80;99.70;;;;;;5053305;28;20426;-68
2022/10/01 12:26:17;;;;;;;2.50;0.80;;;16.90;99.70;;;;;;5053049;28;20385;-67
2022/10/01 12:28:55;;;;;;;7.70;1.63;;;16.90;99.60;;;;;;5053297;28;20044;-68
2022/10/01 12:31:34;;;;;;;3.95;1.42;;;17.00;99.50;;;;;;5053757;28;20033;-68
2022/10/01 12:34:21;;;;;;;5.78;1.30;;;17.10;99.60;;;;;;5053022;28;20098;-68
2022/10/01 12:37:20;;;;;;;7.78;0.57;;;17.10;99.60;;;;;;5053753;28;20084;-70
2022/10/01 12:39:56;;;;;;;3.00;0.77;;;17.20;99.60;;;;;;5052101;28;20460;-68
2022/10/01 12:42:43;;;;;;;2.80;0.63;;;17.30;99.60;;;;;;5052694;28;20297;-67
2022/10/01 12:45:31;;;;;;;7.95;1.85;;;17.40;99.60;;;;;;5041951;28;20064;-68
2022/10/01 12:48:08;;;;;;;7.38;1.55;;;17.40;99.60;;;;;;5051685;28;20545;-67
2022/10/01 12:50:52;;;;;;;4.65;1.08;;;17.50;99.50;;;;;;5052994;28;20035;-67
2022/10/01 12:53:30;;;;;;;4.47;0.98;;;17.60;99.60;;;;;;5051972;28;20043;-68
2022/10/01 12:56:08;;;;;;;8.48;1.35;;;17.70;99.10;;;;;;5052584;28;20056;-68
2022/10/01 12:59:10;;;;;;;9.57;1.80;;;17.80;98.20;;;;;;5053344;28;20021;-68
2022/10/01 13:01:42;;;;;;;11.38;0.88;;;17.80;97.90;;;;;;5052382;28;20094;-66
2022/10/01 13:04:29;;;;;;;6.18;1.42;;;17.90;98.10;;;;;;5053156;28;20082;-67
2022/10/01 13:07:06;;;;;;;9.38;1.02;;;17.90;98.00;;;;;;5052201;28;20090;-68
2022/10/01 13:09:47;;;;;;;6.18;1.10;;;18.00;97.60;;;;;;5051487;28;20057;-68
2022/10/01 13:12:25;;;;;;;6.97;1.20;;;18.10;97.80;;;;;;5052088;28;20087;-68
2022/10/01 13:14:52;;;;;;;6.32;1.13;;;18.10;96.90;;;;;;5051170;28;20025;-68
2022/10/01 13:17:45;;;;;;;11.60;1.58;;;18.20;97.10;;;;;;5052193;28;20107;-68